Arcola, Missouri
Current Conditions -  °F | °C
As of 9:52 AM on Saturday 20 Dec 2014 (Local Time) from KSGF Reporting Station
Haze Haze  
Wind Chill:   Ceiling: 700
Heat Index:   Visibility: 6mi
Dew Point:   Wind: 3mph
Humidity: 93%   Direction: 220°SW
Pressure: 30.23"   Gusts: NA
Location:  37.55°N, 93.88°W
Report Text: KSGF 201552Z 22003KT 6SM BR OVC007 04/03 A3023 RMK AO2 CIG 004V010 SLP243 T00390028
Loading
Personal Weather Stations






























Interactive Weather Map New forecast layout! Learn more

10-Day Weather Forecast

Advertisements
Track Severe Weather on mobile